Time;durP1;ratioP1;P1;durP2;ratioP2;P2;SDS_P1;SDS_P2;PMS_P1;PMS_P2;Temp;Humidity;BMP_temperature;BMP_pressure;BME280_temperature;BME280_humidity;BME280_pressure;Samples;Min_cycle;Max_cycle;Signal;HPM_P1;HPM_P2
2022/04/14 00:01:54;;;;;;;7.40;5.40;;;;;;;;;;5053933;28;20539;-73
2022/04/14 00:04:20;;;;;;;7.90;5.23;;;;;;;;;;5053995;28;20415;-73
2022/04/14 00:06:46;;;;;;;5.77;4.77;;;;;;;;;;5052639;28;20816;-74
2022/04/14 00:09:12;;;;;;;5.03;4.50;;;;;;;;;;5052628;28;20426;-72
2022/04/14 00:11:38;;;;;;;12.67;5.47;;;;;;;;;;5052575;28;20430;-77
2022/04/14 00:14:05;;;;;;;8.43;4.90;;;;;;;;;;5053802;28;20902;-77
2022/04/14 00:16:31;;;;;;;6.77;4.63;;;;;;;;;;5053792;28;20419;-75
2022/04/14 00:18:57;;;;;;;9.73;5.03;;;;;;;;;;5053698;28;21000;-75
2022/04/14 00:21:23;;;;;;;5.50;5.03;;;;;;;;;;5053537;28;20497;-74
2022/04/14 00:23:49;;;;;;;8.40;4.83;;;;;;;;;;5053645;28;20586;-76
2022/04/14 00:26:15;;;;;;;8.20;4.80;;;;;;;;;;5053615;28;20435;-74
2022/04/14 00:28:41;;;;;;;6.83;5.03;;;;;;;;;;5053541;28;20510;-75
2022/04/14 00:31:07;;;;;;;7.67;5.63;;;;;;;;;;5052208;28;20926;-77
2022/04/14 00:33:33;;;;;;;4.70;4.30;;;;;;;;;;5053502;28;20891;-76
2022/04/14 00:35:59;;;;;;;6.03;5.53;;;;;;;;;;5053555;28;20418;-77
2022/04/14 00:38:25;;;;;;;5.67;5.10;;;;;;;;;;5053488;28;20486;-75
2022/04/14 00:40:52;;;;;;;7.47;5.03;;;;;;;;;;5053186;28;20474;-76
2022/04/14 00:43:20;;;;;;;7.30;5.30;;;;;;;;;;5053429;28;20442;-77
2022/04/14 00:45:49;;;;;;;6.93;5.50;;;;;;;;;;5053339;28;20426;-77
2022/04/14 00:48:15;;;;;;;10.43;4.87;;;;;;;;;;5053604;28;20553;-78
2022/04/14 00:50:41;;;;;;;7.20;4.90;;;;;;;;;;5053377;28;20768;-76
2022/04/14 00:53:07;;;;;;;6.00;4.77;;;;;;;;;;5051743;28;20423;-77
2022/04/14 00:55:33;;;;;;;8.97;5.60;;;;;;;;;;5053343;28;20412;-77
2022/04/14 00:57:59;;;;;;;11.80;6.60;;;;;;;;;;5053299;28;20404;-75
2022/04/14 01:00:25;;;;;;;9.93;6.00;;;;;;;;;;5053178;28;20458;-76
2022/04/14 01:02:52;;;;;;;6.20;5.70;;;;;;;;;;5053263;28;20435;-78
2022/04/14 01:05:19;;;;;;;7.10;5.30;;;;;;;;;;5053257;28;20486;-76
2022/04/14 01:07:45;;;;;;;9.53;5.87;;;;;;;;;;5053183;28;20415;-75
2022/04/14 01:10:12;;;;;;;6.80;5.20;;;;;;;;;;5053190;28;20411;-75
2022/04/14 01:12:38;;;;;;;10.63;5.83;;;;;;;;;;5053432;28;20506;-74
2022/04/14 01:15:04;;;;;;;6.83;6.20;;;;;;;;;;5053218;28;20451;-75
2022/04/14 01:17:30;;;;;;;7.73;5.83;;;;;;;;;;5053083;28;20407;-76
2022/04/14 01:19:56;;;;;;;20.00;6.67;;;;;;;;;;5053044;28;20446;-75
2022/04/14 01:22:24;;;;;;;5.13;4.73;;;;;;;;;;5052984;28;20449;-74
2022/04/14 01:24:50;;;;;;;8.73;5.60;;;;;;;;;;5052137;28;20434;-75
2022/04/14 01:27:16;;;;;;;6.37;5.33;;;;;;;;;;5053043;28;20433;-76
2022/04/14 01:29:42;;;;;;;8.20;5.80;;;;;;;;;;5051716;28;20426;-72
2022/04/14 01:32:08;;;;;;;17.13;5.50;;;;;;;;;;5052972;28;20415;-73
2022/04/14 01:34:34;;;;;;;6.83;5.50;;;;;;;;;;5052967;28;20404;-73
2022/04/14 01:37:00;;;;;;;7.97;5.43;;;;;;;;;;5052849;28;20557;-76
2022/04/14 01:39:27;;;;;;;7.13;5.57;;;;;;;;;;5053008;28;20992;-76
2022/04/14 01:41:55;;;;;;;5.30;4.83;;;;;;;;;;5052915;28;20472;-73
2022/04/14 01:44:21;;;;;;;6.00;5.33;;;;;;;;;;5051519;28;20513;-72
2022/04/14 01:46:47;;;;;;;7.53;5.33;;;;;;;;;;5052859;28;20514;-75
2022/04/14 01:49:13;;;;;;;11.10;5.17;;;;;;;;;;5052775;28;20853;-72
2022/04/14 01:51:39;;;;;;;5.80;5.13;;;;;;;;;;5052914;28;20417;-73
2022/04/14 01:54:06;;;;;;;14.43;5.30;;;;;;;;;;5052725;28;20410;-76
2022/04/14 01:56:32;;;;;;;5.90;5.30;;;;;;;;;;5052971;28;20499;-71
2022/04/14 01:58:58;;;;;;;5.37;4.87;;;;;;;;;;5052676;28;20407;-76
2022/04/14 02:01:24;;;;;;;8.47;4.60;;;;;;;;;;5052560;28;20474;-76
2022/04/14 02:03:51;;;;;;;5.10;4.60;;;;;;;;;;5053356;28;20403;-76
2022/04/14 02:06:20;;;;;;;5.90;5.43;;;;;;;;;;5056207;28;20792;-76
2022/04/14 02:08:52;;;;;;;8.93;5.07;;;;;;;;;;5056195;28;20399;-75
2022/04/14 02:11:18;;;;;;;5.77;5.23;;;;;;;;;;5056177;28;20921;-74
2022/04/14 02:13:44;;;;;;;6.03;5.00;;;;;;;;;;5056081;28;20399;-75
2022/04/14 02:16:10;;;;;;;7.90;5.33;;;;;;;;;;5056006;28;20504;-75
2022/04/14 02:18:36;;;;;;;5.70;4.90;;;;;;;;;;5056005;28;20387;-76
2022/04/14 02:21:02;;;;;;;9.13;5.10;;;;;;;;;;5055891;28;20892;-77
2022/04/14 02:23:28;;;;;;;5.50;5.07;;;;;;;;;;5055935;28;20464;-76
2022/04/14 02:25:54;;;;;;;10.93;5.80;;;;;;;;;;5055839;28;20414;-76
2022/04/14 02:28:20;;;;;;;19.30;5.43;;;;;;;;;;5055897;28;20407;-76
2022/04/14 02:30:46;;;;;;;10.50;5.40;;;;;;;;;;5055794;28;20476;-77
2022/04/14 02:33:12;;;;;;;7.20;5.37;;;;;;;;;;5055665;28;20883;-76
2022/04/14 02:35:38;;;;;;;11.30;5.50;;;;;;;;;;5055722;28;20442;-76
2022/04/14 02:38:04;;;;;;;6.27;4.80;;;;;;;;;;5055556;28;20410;-77
2022/04/14 02:40:30;;;;;;;5.80;5.23;;;;;;;;;;5055429;28;20512;-76
2022/04/14 02:42:57;;;;;;;5.97;5.30;;;;;;;;;;5054314;28;20783;-76
2022/04/14 02:45:23;;;;;;;8.97;5.20;;;;;;;;;;5054222;28;20458;-77
2022/04/14 02:47:49;;;;;;;7.80;5.13;;;;;;;;;;5055514;28;20493;-76
2022/04/14 02:50:15;;;;;;;8.23;5.13;;;;;;;;;;5054194;28;20419;-74
2022/04/14 02:52:42;;;;;;;6.33;5.00;;;;;;;;;;5055626;28;20423;-76
2022/04/14 02:55:08;;;;;;;13.60;4.97;;;;;;;;;;5055351;28;20502;-74
2022/04/14 02:57:34;;;;;;;7.03;5.30;;;;;;;;;;5055262;28;20411;-76
2022/04/14 03:00:00;;;;;;;11.63;5.47;;;;;;;;;;5055143;28;20419;-76
2022/04/14 03:02:27;;;;;;;8.90;4.93;;;;;;;;;;5055143;28;20894;-77
2022/04/14 03:04:53;;;;;;;6.60;4.93;;;;;;;;;;5055182;28;20461;-77
2022/04/14 03:07:20;;;;;;;6.20;4.93;;;;;;;;;;5055084;28;20419;-76
2022/04/14 03:09:46;;;;;;;5.10;4.70;;;;;;;;;;5055186;28;20473;-77
2022/04/14 03:12:12;;;;;;;9.43;5.23;;;;;;;;;;5055056;28;20423;-75
2022/04/14 03:14:38;;;;;;;4.37;4.07;;;;;;;;;;5055079;28;20444;-74
2022/04/14 03:17:04;;;;;;;14.00;4.83;;;;;;;;;;5055410;28;20796;-71
2022/04/14 03:19:30;;;;;;;5.10;4.67;;;;;;;;;;5055233;28;20410;-72
2022/04/14 03:21:58;;;;;;;13.17;4.20;;;;;;;;;;5054992;28;20513;-72
2022/04/14 03:24:24;;;;;;;8.57;4.27;;;;;;;;;;5055030;28;20757;-72
2022/04/14 03:26:51;;;;;;;13.03;4.90;;;;;;;;;;5055037;28;20406;-72
2022/04/14 03:29:17;;;;;;;5.27;4.27;;;;;;;;;;5053490;28;20430;-72
2022/04/14 03:31:43;;;;;;;7.70;4.80;;;;;;;;;;5053375;28;20423;-72
2022/04/14 03:34:09;;;;;;;5.13;4.27;;;;;;;;;;5054653;28;20417;-72
2022/04/14 03:36:35;;;;;;;5.33;4.80;;;;;;;;;;5054505;28;20490;-72
2022/04/14 03:39:01;;;;;;;8.33;4.57;;;;;;;;;;5054245;28;20929;-72
2022/04/14 03:41:27;;;;;;;14.13;4.40;;;;;;;;;;5053089;28;20486;-72
2022/04/14 03:43:53;;;;;;;5.97;4.50;;;;;;;;;;5053075;28;20450;-71
2022/04/14 03:46:19;;;;;;;5.50;5.13;;;;;;;;;;5054353;28;20439;-72
2022/04/14 03:48:45;;;;;;;6.60;4.27;;;;;;;;;;5054446;28;20760;-72
2022/04/14 03:51:15;;;;;;;5.00;4.60;;;;;;;;;;5054191;28;20449;-72
2022/04/14 03:53:44;;;;;;;5.03;4.63;;;;;;;;;;5054206;28;20448;-72
2022/04/14 03:56:10;;;;;;;4.83;4.43;;;;;;;;;;5054121;28;20521;-73
2022/04/14 03:58:37;;;;;;;4.53;4.23;;;;;;;;;;5054093;28;20410;-72
2022/04/14 04:01:03;;;;;;;7.30;4.70;;;;;;;;;;5053984;28;20471;-72
2022/04/14 04:03:29;;;;;;;5.23;4.80;;;;;;;;;;5054040;28;20403;-72
2022/04/14 04:05:55;;;;;;;10.00;5.30;;;;;;;;;;5052730;28;20430;-72
2022/04/14 04:08:22;;;;;;;6.00;4.30;;;;;;;;;;5053966;28;20414;-72
2022/04/14 04:10:48;;;;;;;11.00;4.80;;;;;;;;;;5053898;28;20418;-72
2022/04/14 04:13:13;;;;;;;5.63;4.73;;;;;;;;;;5053861;28;20772;-72
2022/04/14 04:15:39;;;;;;;5.50;5.00;;;;;;;;;;5053797;28;20437;-72
2022/04/14 04:18:06;;;;;;;6.97;5.20;;;;;;;;;;5053680;28;20507;-73
2022/04/14 04:20:32;;;;;;;11.43;4.63;;;;;;;;;;5053696;28;20458;-72
2022/04/14 04:22:58;;;;;;;8.37;5.10;;;;;;;;;;5053722;28;20461;-72
2022/04/14 04:25:24;;;;;;;10.23;4.60;;;;;;;;;;5053669;28;20407;-72
2022/04/14 04:27:50;;;;;;;7.90;5.10;;;;;;;;;;5053158;28;20415;-72
2022/04/14 04:30:16;;;;;;;8.00;5.20;;;;;;;;;;5053643;28;20949;-72
2022/04/14 04:32:42;;;;;;;5.30;4.80;;;;;;;;;;5053599;28;20803;-72
2022/04/14 04:35:09;;;;;;;5.17;4.87;;;;;;;;;;5053590;28;20418;-73
2022/04/14 04:37:36;;;;;;;5.90;5.00;;;;;;;;;;5053497;28;20410;-74
2022/04/14 04:40:02;;;;;;;21.63;5.60;;;;;;;;;;5053124;28;20836;-71
2022/04/14 04:42:28;;;;;;;10.70;5.43;;;;;;;;;;5053453;28;20780;-74
2022/04/14 04:44:54;;;;;;;6.00;4.77;;;;;;;;;;5052193;28;20437;-74
2022/04/14 04:47:22;;;;;;;9.97;4.53;;;;;;;;;;5053403;28;20427;-71
2022/04/14 04:49:48;;;;;;;9.53;5.43;;;;;;;;;;5053398;28;20509;-75
2022/04/14 04:52:15;;;;;;;5.03;4.63;;;;;;;;;;5053329;28;20441;-77
2022/04/14 04:54:41;;;;;;;6.07;5.17;;;;;;;;;;5053365;28;20908;-74
2022/04/14 04:57:07;;;;;;;8.30;4.67;;;;;;;;;;5053378;28;20493;-77
2022/04/14 04:59:34;;;;;;;11.50;5.13;;;;;;;;;;5053227;28;20837;-73
2022/04/14 05:02:00;;;;;;;6.10;4.53;;;;;;;;;;5051898;28;20466;-76
2022/04/14 05:04:26;;;;;;;30.33;21.57;;;;;;;;;;5053207;28;20505;-76
2022/04/14 05:06:52;;;;;;;22.43;17.30;;;;;;;;;;5053224;28;20410;-71
2022/04/14 05:09:18;;;;;;;5.73;5.27;;;;;;;;;;5053212;28;20408;-72
2022/04/14 05:11:44;;;;;;;5.70;4.40;;;;;;;;;;5053114;28;20403;-77
2022/04/14 05:14:10;;;;;;;9.70;5.20;;;;;;;;;;5051773;28;20925;-74
2022/04/14 05:16:37;;;;;;;6.73;4.47;;;;;;;;;;5053152;28;20415;-74
2022/04/14 05:19:03;;;;;;;6.73;4.90;;;;;;;;;;5053043;28;20399;-71
2022/04/14 05:21:29;;;;;;;10.20;4.60;;;;;;;;;;5051813;28;20977;-71
2022/04/14 05:23:54;;;;;;;6.57;5.20;;;;;;;;;;5053145;28;20406;-71
2022/04/14 05:26:21;;;;;;;14.50;4.90;;;;;;;;;;5051764;28;20987;-71
2022/04/14 05:28:47;;;;;;;5.73;5.10;;;;;;;;;;5053273;28;20407;-73
2022/04/14 05:31:12;;;;;;;7.60;4.67;;;;;;;;;;5052966;28;20948;-71
2022/04/14 05:33:39;;;;;;;17.73;5.30;;;;;;;;;;5052905;28;20797;-75
2022/04/14 05:36:05;;;;;;;7.33;4.80;;;;;;;;;;5052888;28;20411;-71
2022/04/14 05:38:31;;;;;;;10.13;4.87;;;;;;;;;;5053052;28;20399;-71
2022/04/14 05:40:57;;;;;;;12.70;5.33;;;;;;;;;;5056543;28;20828;-77
2022/04/14 05:43:28;;;;;;;12.43;11.07;;;;;;;;;;5056648;28;20399;-77
2022/04/14 05:45:59;;;;;;;12.93;6.77;;;;;;;;;;5056615;28;20418;-76
2022/04/14 05:48:25;;;;;;;7.30;5.13;;;;;;;;;;5056507;28;20954;-77
2022/04/14 05:50:51;;;;;;;6.60;4.87;;;;;;;;;;5056456;28;20724;-77
2022/04/14 05:53:17;;;;;;;6.80;5.10;;;;;;;;;;5056539;28;20395;-78
2022/04/14 05:55:45;;;;;;;9.43;5.90;;;;;;;;;;5056534;28;20894;-79
2022/04/14 05:58:12;;;;;;;5.73;5.40;;;;;;;;;;5056375;28;20399;-78
2022/04/14 06:00:38;;;;;;;9.10;6.57;;;;;;;;;;5056454;28;20481;-76
2022/04/14 06:03:04;;;;;;;15.70;8.30;;;;;;;;;;5056198;28;20403;-78
2022/04/14 06:05:31;;;;;;;15.97;14.30;;;;;;;;;;5056150;28;20415;-81
2022/04/14 06:07:58;;;;;;;13.47;10.73;;;;;;;;;;5056136;28;20944;-70
2022/04/14 06:10:24;;;;;;;8.70;6.10;;;;;;;;;;5056158;28;20415;-77
2022/04/14 06:12:50;;;;;;;15.67;6.20;;;;;;;;;;5056067;28;20403;-72
2022/04/14 06:15:17;;;;;;;8.20;5.80;;;;;;;;;;5055881;28;20918;-71
2022/04/14 06:17:43;;;;;;;8.67;7.30;;;;;;;;;;5055790;28;20415;-74
2022/04/14 06:20:09;;;;;;;7.70;6.00;;;;;;;;;;5054500;28;20499;-74
2022/04/14 06:22:42;;;;;;;7.87;5.60;;;;;;;;;;5056018;28;20430;-75
2022/04/14 06:25:12;;;;;;;16.10;6.90;;;;;;;;;;5055972;28;20407;-73
2022/04/14 06:27:41;;;;;;;12.93;6.60;;;;;;;;;;5055858;28;20406;-72
2022/04/14 06:30:08;;;;;;;9.50;6.60;;;;;;;;;;5055831;28;20411;-74
2022/04/14 06:32:35;;;;;;;10.30;7.33;;;;;;;;;;5055659;28;20406;-76
2022/04/14 06:35:01;;;;;;;10.37;6.57;;;;;;;;;;5055755;28;20422;-77
2022/04/14 06:37:27;;;;;;;11.07;6.50;;;;;;;;;;5055643;28;20411;-73
2022/04/14 06:39:53;;;;;;;12.73;7.07;;;;;;;;;;5055413;28;20462;-73
2022/04/14 06:42:22;;;;;;;9.17;6.97;;;;;;;;;;5055481;28;20466;-72
2022/04/14 06:44:48;;;;;;;14.73;6.00;;;;;;;;;;5055550;28;20898;-72
2022/04/14 06:47:14;;;;;;;15.77;11.13;;;;;;;;;;5055429;28;20474;-72
2022/04/14 06:49:40;;;;;;;14.13;7.40;;;;;;;;;;5055151;28;20415;-74
2022/04/14 06:52:06;;;;;;;11.27;6.97;;;;;;;;;;5055240;28;20431;-74
2022/04/14 06:54:32;;;;;;;6.97;5.70;;;;;;;;;;5055347;28;20391;-74
2022/04/14 06:56:58;;;;;;;6.77;6.10;;;;;;;;;;5054732;28;20943;-75
2022/04/14 06:59:24;;;;;;;10.73;5.97;;;;;;;;;;5055172;28;20896;-72
2022/04/14 07:01:50;;;;;;;10.73;5.70;;;;;;;;;;5055151;28;20471;-73
2022/04/14 07:04:16;;;;;;;18.27;5.80;;;;;;;;;;5055179;28;20493;-74
2022/04/14 07:06:42;;;;;;;9.90;5.60;;;;;;;;;;5055151;28;20407;-74
2022/04/14 07:09:08;;;;;;;14.43;6.13;;;;;;;;;;5055091;28;20396;-74
2022/04/14 07:11:34;;;;;;;8.63;4.87;;;;;;;;;;5055114;28;20603;-75
2022/04/14 07:14:00;;;;;;;11.27;5.13;;;;;;;;;;5055002;28;20404;-76
2022/04/14 07:16:26;;;;;;;7.67;4.97;;;;;;;;;;5054978;28;20410;-73
2022/04/14 07:18:52;;;;;;;9.63;4.40;;;;;;;;;;5054952;28;20398;-73
2022/04/14 07:21:18;;;;;;;11.33;5.10;;;;;;;;;;5054820;28;20555;-75
2022/04/14 07:23:44;;;;;;;12.53;6.10;;;;;;;;;;5054768;28;20414;-73
2022/04/14 07:26:10;;;;;;;12.33;8.43;;;;;;;;;;5054817;28;20496;-69
2022/04/14 07:28:36;;;;;;;16.20;7.00;;;;;;;;;;5054646;28;20497;-73
2022/04/14 07:31:02;;;;;;;7.73;4.40;;;;;;;;;;5054658;28;20418;-75
2022/04/14 07:33:28;;;;;;;7.70;5.10;;;;;;;;;;5053340;28;20434;-73
2022/04/14 07:35:54;;;;;;;9.17;4.43;;;;;;;;;;5048353;28;20471;-74
2022/04/14 07:38:20;;;;;;;14.07;5.00;;;;;;;;;;5050107;28;20458;-74
2022/04/14 07:40:46;;;;;;;10.40;4.77;;;;;;;;;;5051431;28;20908;-74
2022/04/14 07:43:12;;;;;;;7.97;4.93;;;;;;;;;;5051770;28;20426;-75
2022/04/14 07:45:39;;;;;;;11.77;5.27;;;;;;;;;;5050844;28;20811;-72
2022/04/14 07:48:05;;;;;;;11.30;5.90;;;;;;;;;;5052085;28;20430;-73
2022/04/14 07:50:32;;;;;;;16.33;5.30;;;;;;;;;;5050403;28;20774;-77
2022/04/14 07:52:59;;;;;;;9.33;4.73;;;;;;;;;;5051911;28;20445;-77
2022/04/14 07:55:29;;;;;;;6.97;4.73;;;;;;;;;;5051377;28;20420;-74
2022/04/14 07:57:57;;;;;;;8.20;4.57;;;;;;;;;;5051425;28;20476;-76
2022/04/14 08:00:23;;;;;;;11.37;4.63;;;;;;;;;;5051413;28;20465;-78
2022/04/14 08:02:53;;;;;;;13.90;5.57;;;;;;;;;;5050775;28;20439;-75
2022/04/14 08:05:20;;;;;;;6.00;4.60;;;;;;;;;;5051255;28;20910;-75
2022/04/14 08:07:46;;;;;;;7.60;5.07;;;;;;;;;;5051130;28;20431;-76
2022/04/14 08:10:12;;;;;;;10.20;4.53;;;;;;;;;;5053873;28;20413;-78
2022/04/14 08:12:38;;;;;;;11.90;5.77;;;;;;;;;;5053863;28;20442;-76
2022/04/14 08:15:04;;;;;;;7.87;5.30;;;;;;;;;;5053976;28;20416;-76
2022/04/14 08:17:33;;;;;;;11.80;5.63;;;;;;;;;;5053778;28;20498;-76
2022/04/14 08:19:59;;;;;;;11.70;5.80;;;;;;;;;;5052500;28;20423;-76
2022/04/14 08:22:24;;;;;;;7.43;6.60;;;;;;;;;;5052372;28;20412;-75
2022/04/14 08:24:53;;;;;;;13.20;8.00;;;;;;;;;;5052453;28;20411;-75
2022/04/14 08:27:19;;;;;;;13.33;9.23;;;;;;;;;;5053785;28;20404;-76
2022/04/14 08:29:45;;;;;;;16.40;13.60;;;;;;;;;;5053632;28;20424;-76
2022/04/14 08:32:11;;;;;;;13.97;9.90;;;;;;;;;;5053591;28;20424;-76
2022/04/14 08:34:37;;;;;;;14.10;11.40;;;;;;;;;;5053646;28;20444;-76
2022/04/14 08:37:03;;;;;;;20.83;14.33;;;;;;;;;;5053403;28;20446;-70
2022/04/14 08:39:30;;;;;;;22.13;14.30;;;;;;;;;;5053306;28;20469;-74
2022/04/14 08:42:00;;;;;;;23.70;15.40;;;;;;;;;;5053652;28;20482;-72
2022/04/14 08:44:30;;;;;;;18.80;13.90;;;;;;;;;;5053408;28;21093;-73
2022/04/14 08:46:58;;;;;;;15.80;13.60;;;;;;;;;;5053329;28;20453;-73
2022/04/14 08:49:24;;;;;;;17.73;12.20;;;;;;;;;;5053387;28;20424;-72
2022/04/14 08:51:50;;;;;;;26.87;16.93;;;;;;;;;;5053635;28;20405;-73
2022/04/14 08:54:19;;;;;;;20.60;15.87;;;;;;;;;;5053109;28;20404;-73
2022/04/14 08:56:46;;;;;;;19.50;14.53;;;;;;;;;;5052916;28;20443;-73
2022/04/14 08:59:13;;;;;;;30.07;15.53;;;;;;;;;;5053226;28;20400;-78
2022/04/14 09:01:39;;;;;;;20.70;16.70;;;;;;;;;;5053081;28;20512;-74
2022/04/14 09:04:05;;;;;;;20.03;15.50;;;;;;;;;;5053228;28;20500;-76
2022/04/14 09:06:32;;;;;;;20.03;14.93;;;;;;;;;;5051672;28;20414;-76
2022/04/14 09:08:58;;;;;;;24.67;16.50;;;;;;;;;;5050286;28;20417;-74
2022/04/14 09:11:25;;;;;;;24.03;15.90;;;;;;;;;;5050461;28;20434;-74
2022/04/14 09:13:51;;;;;;;17.40;15.20;;;;;;;;;;5052951;28;20415;-75
2022/04/14 09:16:17;;;;;;;24.50;16.90;;;;;;;;;;5054356;28;20523;-74
2022/04/14 09:18:45;;;;;;;26.67;17.20;;;;;;;;;;5054690;28;20895;-75
2022/04/14 09:21:12;;;;;;;20.23;15.17;;;;;;;;;;5054637;28;20470;-75
2022/04/14 09:23:38;;;;;;;35.27;15.50;;;;;;;;;;5054359;28;20417;-73
2022/04/14 09:26:14;;;;;;;22.43;15.53;;;;;;;;;;5055542;28;20915;-74
2022/04/14 09:29:00;;;;;;;27.13;15.90;;;;;;;;;;5056914;28;20790;-74
2022/04/14 09:31:27;;;;;;;21.93;15.40;;;;;;;;;;5056868;28;20414;-74
2022/04/14 09:33:53;;;;;;;23.03;15.40;;;;;;;;;;5056837;28;20403;-76
2022/04/14 09:36:20;;;;;;;22.80;15.97;;;;;;;;;;5055566;28;20424;-74
2022/04/14 09:38:53;;;;;;;20.43;17.10;;;;;;;;;;5056674;28;20871;-74
2022/04/14 09:41:28;;;;;;;23.13;16.73;;;;;;;;;;5056650;28;20470;-73
2022/04/14 09:43:55;;;;;;;18.70;16.10;;;;;;;;;;5056697;28;20406;-75
2022/04/14 09:46:21;;;;;;;28.03;18.43;;;;;;;;;;5056593;28;20502;-72
2022/04/14 09:49:07;;;;;;;22.30;16.23;;;;;;;;;;5056603;28;20446;-75
2022/04/14 09:51:35;;;;;;;21.93;15.60;;;;;;;;;;5056548;28;20431;-73
2022/04/14 09:54:15;;;;;;;29.07;18.30;;;;;;;;;;5056529;28;20400;-74
2022/04/14 09:56:53;;;;;;;26.10;16.73;;;;;;;;;;5056531;28;20423;-74
2022/04/14 09:59:23;;;;;;;22.30;17.13;;;;;;;;;;5056382;28;20388;-75
2022/04/14 10:01:50;;;;;;;29.30;15.73;;;;;;;;;;5056356;28;20966;-73
2022/04/14 10:04:29;;;;;;;26.27;17.43;;;;;;;;;;5056574;28;20803;-74
2022/04/14 10:07:02;;;;;;;31.93;16.33;;;;;;;;;;5056269;28;20406;-74
2022/04/14 10:09:30;;;;;;;23.90;15.40;;;;;;;;;;5056165;28;20877;-73
2022/04/14 10:11:56;;;;;;;20.70;17.10;;;;;;;;;;5056418;28;20397;-75
2022/04/14 10:14:24;;;;;;;23.80;17.20;;;;;;;;;;5054815;28;20414;-74
2022/04/14 10:16:50;;;;;;;27.37;16.43;;;;;;;;;;5056353;28;20516;-75
2022/04/14 10:19:16;;;;;;;25.27;16.70;;;;;;;;;;5056048;28;20409;-76
2022/04/14 10:21:44;;;;;;;30.00;17.37;;;;;;;;;;5055886;28;20498;-74
2022/04/14 10:24:11;;;;;;;24.50;16.83;;;;;;;;;;5055431;28;20410;-75
2022/04/14 10:26:38;;;;;;;27.57;17.50;;;;;;;;;;5055586;28;20398;-71
2022/04/14 10:29:06;;;;;;;33.43;16.30;;;;;;;;;;5055918;28;20415;-71
2022/04/14 10:31:34;;;;;;;21.23;15.83;;;;;;;;;;5055748;28;20500;-72
2022/04/14 10:34:04;;;;;;;22.43;17.10;;;;;;;;;;5054479;28;20418;-71
2022/04/14 10:36:30;;;;;;;22.00;15.73;;;;;;;;;;5055742;28;20774;-73
2022/04/14 10:38:57;;;;;;;20.50;16.10;;;;;;;;;;5055460;28;20492;-72
2022/04/14 10:41:25;;;;;;;20.67;15.70;;;;;;;;;;5055593;28;20887;-74
2022/04/14 10:43:51;;;;;;;21.63;14.20;;;;;;;;;;5055606;28;20492;-72
2022/04/14 10:46:18;;;;;;;25.33;15.70;;;;;;;;;;5055534;28;20424;-75
2022/04/14 10:48:45;;;;;;;21.70;15.70;;;;;;;;;;5055478;28;20757;-72
2022/04/14 10:51:29;;;;;;;33.47;14.80;;;;;;;;;;5055712;28;20503;-67
2022/04/14 10:53:59;;;;;;;26.50;15.30;;;;;;;;;;5055442;28;20457;-73
2022/04/14 10:56:34;;;;;;;17.40;14.60;;;;;;;;;;5054412;28;20437;-74
2022/04/14 10:59:07;;;;;;;21.27;14.47;;;;;;;;;;5055346;28;20551;-74
2022/04/14 11:01:50;;;;;;;22.67;15.17;;;;;;;;;;5055447;28;20523;-74
2022/04/14 11:04:25;;;;;;;20.50;16.23;;;;;;;;;;5055157;28;20400;-74
2022/04/14 11:06:52;;;;;;;18.63;16.53;;;;;;;;;;5052735;28;20451;-71
2022/04/14 11:09:37;;;;;;;27.53;17.57;;;;;;;;;;5052682;28;20449;-73
2022/04/14 11:12:02;;;;;;;31.50;16.73;;;;;;;;;;5054776;28;20415;-76
2022/04/14 11:14:28;;;;;;;25.40;15.80;;;;;;;;;;5054784;28;20406;-76
2022/04/14 11:16:54;;;;;;;22.63;15.40;;;;;;;;;;5054682;28;20413;-76
2022/04/14 11:19:27;;;;;;;20.10;16.80;;;;;;;;;;5054661;28;20929;-77
2022/04/14 11:21:59;;;;;;;20.30;15.13;;;;;;;;;;5054706;28;20993;-75
2022/04/14 11:24:37;;;;;;;22.70;14.83;;;;;;;;;;5055228;28;20397;-77
2022/04/14 11:27:09;;;;;;;19.50;13.43;;;;;;;;;;5054851;28;20408;-76
2022/04/14 11:29:35;;;;;;;23.60;14.40;;;;;;;;;;5054561;28;20409;-74
2022/04/14 11:32:01;;;;;;;19.13;15.00;;;;;;;;;;5054334;28;20406;-74
2022/04/14 11:34:34;;;;;;;24.07;13.17;;;;;;;;;;5054142;28;20402;-76
2022/04/14 11:37:03;;;;;;;24.20;14.30;;;;;;;;;;5054584;28;20411;-76
2022/04/14 11:39:30;;;;;;;21.47;15.60;;;;;;;;;;5054019;28;20443;-79
2022/04/14 11:42:16;;;;;;;26.23;14.70;;;;;;;;;;5054491;28;20508;-78
2022/04/14 11:44:42;;;;;;;21.57;13.77;;;;;;;;;;5054132;28;20448;-77
2022/04/14 11:47:09;;;;;;;19.90;13.67;;;;;;;;;;5054497;28;20421;-78
2022/04/14 11:49:35;;;;;;;21.33;13.83;;;;;;;;;;5054367;28;20424;-76
2022/04/14 11:52:05;;;;;;;21.33;13.60;;;;;;;;;;5053084;28;20431;-79
2022/04/14 11:54:31;;;;;;;21.27;14.17;;;;;;;;;;5052790;28;20926;-77
2022/04/14 11:56:58;;;;;;;19.43;13.50;;;;;;;;;;5054050;28;20398;-75
2022/04/14 11:59:33;;;;;;;20.50;13.70;;;;;;;;;;5054101;28;20418;-76
2022/04/14 12:02:03;;;;;;;20.20;13.57;;;;;;;;;;5053978;28;20472;-77
2022/04/14 12:04:36;;;;;;;20.17;14.10;;;;;;;;;;5053717;28;20406;-77
2022/04/14 12:07:03;;;;;;;22.23;15.67;;;;;;;;;;5053998;28;20413;-76
2022/04/14 12:09:30;;;;;;;28.80;14.10;;;;;;;;;;5053904;28;20486;-79
2022/04/14 12:11:56;;;;;;;13.63;12.23;;;;;;;;;;5054007;28;20411;-77
2022/04/14 12:14:22;;;;;;;20.47;14.03;;;;;;;;;;5052549;28;20440;-77
2022/04/14 12:16:48;;;;;;;23.50;14.73;;;;;;;;;;5053910;28;20411;-74
2022/04/14 12:19:14;;;;;;;14.90;13.37;;;;;;;;;;5053633;28;20943;-76
2022/04/14 12:21:40;;;;;;;23.67;12.93;;;;;;;;;;5053741;28;20470;-75
2022/04/14 12:24:06;;;;;;;20.43;13.83;;;;;;;;;;5053453;28;20764;-70
2022/04/14 12:26:35;;;;;;;22.10;14.10;;;;;;;;;;5053642;28;20445;-73
2022/04/14 12:29:02;;;;;;;20.03;14.57;;;;;;;;;;5053332;28;20395;-74
2022/04/14 12:31:30;;;;;;;19.70;14.43;;;;;;;;;;5052973;28;20416;-75
2022/04/14 12:33:59;;;;;;;19.63;12.93;;;;;;;;;;5053758;28;20388;-71
2022/04/14 12:36:35;;;;;;;25.77;13.63;;;;;;;;;;5053042;28;20407;-71
2022/04/14 12:39:04;;;;;;;13.97;12.47;;;;;;;;;;5053585;28;20422;-72
2022/04/14 12:41:37;;;;;;;20.57;12.00;;;;;;;;;;5053395;28;20980;-73
2022/04/14 12:44:03;;;;;;;20.60;13.17;;;;;;;;;;5053136;28;20482;-72
2022/04/14 12:46:35;;;;;;;19.27;11.27;;;;;;;;;;5053008;28;20417;-70
2022/04/14 12:49:01;;;;;;;13.30;10.37;;;;;;;;;;5051511;28;20796;-75
2022/04/14 12:51:31;;;;;;;25.93;12.47;;;;;;;;;;5053383;28;20415;-71
2022/04/14 12:53:57;;;;;;;16.13;12.43;;;;;;;;;;5053615;28;20408;-71
2022/04/14 12:56:23;;;;;;;20.50;12.83;;;;;;;;;;5053036;28;20763;-73
2022/04/14 12:59:07;;;;;;;25.83;16.47;;;;;;;;;;5053222;28;20399;-72
2022/04/14 13:01:47;;;;;;;22.00;14.33;;;;;;;;;;5052896;28;20473;-73
2022/04/14 13:04:13;;;;;;;32.27;17.40;;;;;;;;;;5053217;28;20461;-69
2022/04/14 13:06:39;;;;;;;19.70;16.97;;;;;;;;;;5053084;28;20409;-75
2022/04/14 13:09:14;;;;;;;24.80;17.43;;;;;;;;;;5053059;28;20404;-73
2022/04/14 13:11:41;;;;;;;27.57;16.17;;;;;;;;;;5053105;28;20399;-70
2022/04/14 13:14:16;;;;;;;23.17;17.37;;;;;;;;;;5053046;28;20414;-71
2022/04/14 13:16:44;;;;;;;23.03;15.27;;;;;;;;;;5052859;28;20481;-71
2022/04/14 13:19:10;;;;;;;20.67;17.93;;;;;;;;;;5053096;28;20410;-73
2022/04/14 13:21:36;;;;;;;21.27;16.03;;;;;;;;;;5053177;28;20479;-71
2022/04/14 13:24:02;;;;;;;18.60;13.77;;;;;;;;;;5052997;28;20402;-70
2022/04/14 13:26:29;;;;;;;12.80;11.50;;;;;;;;;;5053059;28;20414;-72
2022/04/14 13:28:55;;;;;;;17.40;11.30;;;;;;;;;;5053150;28;20799;-70
2022/04/14 13:31:21;;;;;;;23.10;11.70;;;;;;;;;;5052825;28;20422;-70
2022/04/14 13:33:47;;;;;;;11.60;10.40;;;;;;;;;;5052949;28;20737;-69
2022/04/14 13:36:13;;;;;;;15.17;13.60;;;;;;;;;;5052783;28;20819;-70
2022/04/14 13:38:39;;;;;;;16.47;11.57;;;;;;;;;;5052989;28;20403;-69
2022/04/14 13:41:05;;;;;;;11.30;9.77;;;;;;;;;;5052682;28;20479;-73
2022/04/14 13:43:31;;;;;;;16.03;11.90;;;;;;;;;;5051769;28;20431;-73
2022/04/14 13:45:57;;;;;;;17.43;13.67;;;;;;;;;;5051366;28;20411;-75
2022/04/14 13:48:23;;;;;;;14.10;12.73;;;;;;;;;;5052688;28;20494;-71
2022/04/14 13:50:49;;;;;;;18.67;11.17;;;;;;;;;;5052649;28;20461;-73
2022/04/14 13:53:17;;;;;;;15.03;12.33;;;;;;;;;;5052633;28;20436;-72
2022/04/14 13:55:43;;;;;;;22.23;11.57;;;;;;;;;;5052666;28;20418;-79
2022/04/14 13:58:09;;;;;;;13.70;12.20;;;;;;;;;;5052649;28;20492;-73
2022/04/14 14:00:35;;;;;;;17.70;13.10;;;;;;;;;;5054209;28;20476;-76
2022/04/14 14:03:02;;;;;;;29.40;12.77;;;;;;;;;;5056214;28;20415;-74
2022/04/14 14:05:28;;;;;;;13.70;11.77;;;;;;;;;;5056160;28;20547;-74
2022/04/14 14:07:54;;;;;;;24.50;11.67;;;;;;;;;;5056321;28;20923;-74
2022/04/14 14:10:20;;;;;;;13.50;9.90;;;;;;;;;;5054790;28;20419;-74
2022/04/14 14:12:46;;;;;;;11.77;10.40;;;;;;;;;;5054650;28;20439;-72
2022/04/14 14:15:12;;;;;;;13.20;11.90;;;;;;;;;;5054616;28;20426;-72
2022/04/14 14:17:38;;;;;;;12.90;10.73;;;;;;;;;;5055809;28;20418;-71
2022/04/14 14:20:14;;;;;;;17.17;11.63;;;;;;;;;;5054314;28;20429;-71
2022/04/14 14:22:41;;;;;;;13.43;11.20;;;;;;;;;;5055667;28;20420;-72
2022/04/14 14:25:08;;;;;;;15.43;10.70;;;;;;;;;;5055679;28;20412;-70
2022/04/14 14:27:34;;;;;;;20.37;10.30;;;;;;;;;;5055316;28;20946;-70
2022/04/14 14:30:01;;;;;;;14.57;10.90;;;;;;;;;;5054903;28;20417;-71